Aérodrome :
LOGIN :

S'inscrire | Disclaimer

   EN    FR    IT 

 










Légende :    VFR   VFR Marginal   IFR   IFR Intensif   IFR Très Intensif
Visi : 
Plafond : 
>= 8 km
>= 3000ft
5 à 8 km
1000 à 3000 ft
1500m à 5 km
500 à 1000 ft
800 à 1500m
200 à 500 ft
< 800m
< 200 ft
Symboles :   Orages  Brouillard  Fortes neiges  Fortes précipitations  Vent > 20 kt
SIGMETs :   Divers  Orages  Givrage  Turbulence  Onde Orograph.  Cendres Volcan.






- Altitude de l'aérodrome : 525 ft
- Code IATA : VAF


LFLU - Valence

DERNIER METAR :
  • 261530Z AUTO 21007KT 9999 ///CB 23/13 Q1016

METARs EXPIRÉS :
  • 261500Z AUTO 21008KT 170V250 CAVOK 24/14 Q1016
  • 261430Z AUTO 20007KT 160V230 CAVOK 25/14 Q1016
  • 261400Z AUTO 21007KT 180V240 CAVOK 25/13 Q1017
  • 261330Z AUTO 22008KT CAVOK 24/13 Q1017
  • 261300Z AUTO 22010KT CAVOK 24/12 Q1017
  • 261230Z AUTO 22008KT 190V270 CAVOK 24/13 Q1017
  • 261200Z AUTO 21010KT 180V240 CAVOK 24/13 Q1017
  • 261130Z AUTO 22010KT 180V250 CAVOK 24/15 Q1018
  • 261100Z AUTO 21009KT 180V240 CAVOK 23/14 Q1018

TAF N/A



MET'MAP, la Météo Aéronautique d'un coup d'oeil ! - Copyright ORBIFLY Décembre 2007 - Disclaimer

ORBIFLY MET'MAP TEAM :

Programmation & Développement : Alexandra Zaïnal
Sur une idée originale de : Baudouin d'Aumeries
Soutien technique & logistique : Manuel Goepfert
Assistance : Marc-Olivier Méhu




SOURCES & CREDITS :

   NOAA